sensor_id;sensor_type;location;lat;lon;timestamp;P1;durP1;ratioP1;P2;durP2;ratioP2
9722;SDS011;4900;49.306;8.500;2023-07-09T00:02:16;7.38;;;4.90;;
9722;SDS011;4900;49.306;8.500;2023-07-09T00:04:43;9.82;;;5.00;;
9722;SDS011;4900;49.306;8.500;2023-07-09T00:07:51;9.20;;;5.32;;
9722;SDS011;4900;49.306;8.500;2023-07-09T00:09:58;6.63;;;4.88;;
9722;SDS011;4900;49.306;8.500;2023-07-09T00:12:24;6.40;;;5.03;;
9722;SDS011;4900;49.306;8.500;2023-07-09T00:14:50;5.97;;;4.55;;
9722;SDS011;4900;49.306;8.500;2023-07-09T00:17:26;6.15;;;4.53;;
9722;SDS011;4900;49.306;8.500;2023-07-09T00:19:53;7.65;;;4.80;;
9722;SDS011;4900;49.306;8.500;2023-07-09T00:22:19;6.43;;;4.70;;
9722;SDS011;4900;49.306;8.500;2023-07-09T00:24:49;8.00;;;5.35;;
9722;SDS011;4900;49.306;8.500;2023-07-09T00:27:19;7.07;;;5.00;;
9722;SDS011;4900;49.306;8.500;2023-07-09T00:29:47;8.70;;;4.95;;
9722;SDS011;4900;49.306;8.500;2023-07-09T00:32:15;6.07;;;4.70;;
9722;SDS011;4900;49.306;8.500;2023-07-09T00:34:48;5.43;;;4.47;;
9722;SDS011;4900;49.306;8.500;2023-07-09T00:37:17;6.32;;;4.68;;
9722;SDS011;4900;49.306;8.500;2023-07-09T00:39:45;7.05;;;4.53;;
9722;SDS011;4900;49.306;8.500;2023-07-09T00:42:12;5.43;;;4.47;;
9722;SDS011;4900;49.306;8.500;2023-07-09T00:44:42;5.10;;;4.55;;
9722;SDS011;4900;49.306;8.500;2023-07-09T00:47:24;8.88;;;4.70;;
9722;SDS011;4900;49.306;8.500;2023-07-09T00:49:56;5.32;;;4.43;;
9722;SDS011;4900;49.306;8.500;2023-07-09T00:52:45;6.93;;;5.28;;
9722;SDS011;4900;49.306;8.500;2023-07-09T00:55:24;6.95;;;4.97;;
9722;SDS011;4900;49.306;8.500;2023-07-09T00:57:56;7.60;;;5.68;;
9722;SDS011;4900;49.306;8.500;2023-07-09T01:00:31;7.80;;;4.72;;
9722;SDS011;4900;49.306;8.500;2023-07-09T01:03:11;6.95;;;4.90;;
9722;SDS011;4900;49.306;8.500;2023-07-09T01:05:48;8.45;;;5.53;;
9722;SDS011;4900;49.306;8.500;2023-07-09T01:08:16;7.38;;;5.43;;
9722;SDS011;4900;49.306;8.500;2023-07-09T01:10:43;7.22;;;4.78;;
9722;SDS011;4900;49.306;8.500;2023-07-09T01:13:08;7.00;;;4.75;;
9722;SDS011;4900;49.306;8.500;2023-07-09T01:15:34;6.13;;;4.65;;
9722;SDS011;4900;49.306;8.500;2023-07-09T01:18:03;6.65;;;5.30;;
9722;SDS011;4900;49.306;8.500;2023-07-09T01:20:29;6.75;;;5.10;;
9722;SDS011;4900;49.306;8.500;2023-07-09T01:22:54;7.32;;;4.97;;
9722;SDS011;4900;49.306;8.500;2023-07-09T01:25:22;5.75;;;5.00;;
9722;SDS011;4900;49.306;8.500;2023-07-09T01:27:49;5.82;;;4.65;;
9722;SDS011;4900;49.306;8.500;2023-07-09T01:32:48;6.25;;;4.90;;
9722;SDS011;4900;49.306;8.500;2023-07-09T01:35:20;6.28;;;5.00;;
9722;SDS011;4900;49.306;8.500;2023-07-09T01:37:46;8.20;;;5.18;;
9722;SDS011;4900;49.306;8.500;2023-07-09T01:40:13;6.88;;;5.20;;
9722;SDS011;4900;49.306;8.500;2023-07-09T01:42:41;7.57;;;5.10;;
9722;SDS011;4900;49.306;8.500;2023-07-09T01:45:08;7.93;;;5.40;;
9722;SDS011;4900;49.306;8.500;2023-07-09T01:47:35;7.15;;;4.95;;
9722;SDS011;4900;49.306;8.500;2023-07-09T01:50:02;6.38;;;4.80;;
9722;SDS011;4900;49.306;8.500;2023-07-09T01:52:29;7.10;;;5.07;;
9722;SDS011;4900;49.306;8.500;2023-07-09T01:54:57;6.60;;;4.90;;
9722;SDS011;4900;49.306;8.500;2023-07-09T01:57:24;7.18;;;5.32;;
9722;SDS011;4900;49.306;8.500;2023-07-09T01:59:58;7.70;;;5.38;;
9722;SDS011;4900;49.306;8.500;2023-07-09T02:02:24;5.72;;;5.03;;
9722;SDS011;4900;49.306;8.500;2023-07-09T02:04:51;8.68;;;5.68;;
9722;SDS011;4900;49.306;8.500;2023-07-09T02:07:18;7.45;;;4.93;;
9722;SDS011;4900;49.306;8.500;2023-07-09T02:09:45;7.32;;;4.85;;
9722;SDS011;4900;49.306;8.500;2023-07-09T02:12:10;6.70;;;4.72;;
9722;SDS011;4900;49.306;8.500;2023-07-09T02:14:37;6.20;;;4.93;;
9722;SDS011;4900;49.306;8.500;2023-07-09T02:17:03;6.10;;;5.13;;
9722;SDS011;4900;49.306;8.500;2023-07-09T02:19:29;6.97;;;5.30;;
9722;SDS011;4900;49.306;8.500;2023-07-09T02:21:55;7.40;;;5.47;;
9722;SDS011;4900;49.306;8.500;2023-07-09T02:24:21;6.65;;;5.30;;
9722;SDS011;4900;49.306;8.500;2023-07-09T02:26:52;8.73;;;6.00;;
9722;SDS011;4900;49.306;8.500;2023-07-09T02:29:20;6.93;;;5.45;;
9722;SDS011;4900;49.306;8.500;2023-07-09T02:31:47;5.97;;;5.15;;
9722;SDS011;4900;49.306;8.500;2023-07-09T02:34:14;7.25;;;5.40;;
9722;SDS011;4900;49.306;8.500;2023-07-09T02:36:39;5.53;;;5.00;;
9722;SDS011;4900;49.306;8.500;2023-07-09T02:39:09;6.38;;;5.03;;
9722;SDS011;4900;49.306;8.500;2023-07-09T02:41:35;7.18;;;5.15;;
9722;SDS011;4900;49.306;8.500;2023-07-09T02:44:01;5.70;;;5.10;;
9722;SDS011;4900;49.306;8.500;2023-07-09T02:46:27;6.32;;;4.95;;
9722;SDS011;4900;49.306;8.500;2023-07-09T02:48:52;6.53;;;5.00;;
9722;SDS011;4900;49.306;8.500;2023-07-09T02:51:17;6.32;;;5.05;;
9722;SDS011;4900;49.306;8.500;2023-07-09T02:53:43;7.50;;;6.00;;
9722;SDS011;4900;49.306;8.500;2023-07-09T02:56:08;6.88;;;5.32;;
9722;SDS011;4900;49.306;8.500;2023-07-09T02:58:34;6.25;;;5.60;;
9722;SDS011;4900;49.306;8.500;2023-07-09T03:00:59;6.25;;;5.13;;
9722;SDS011;4900;49.306;8.500;2023-07-09T03:03:24;11.15;;;5.60;;
9722;SDS011;4900;49.306;8.500;2023-07-09T03:05:50;6.68;;;5.03;;
9722;SDS011;4900;49.306;8.500;2023-07-09T03:08:15;7.43;;;5.30;;
9722;SDS011;4900;49.306;8.500;2023-07-09T03:10:41;10.65;;;5.80;;
9722;SDS011;4900;49.306;8.500;2023-07-09T03:13:06;6.63;;;5.38;;
9722;SDS011;4900;49.306;8.500;2023-07-09T03:15:32;6.65;;;5.03;;
9722;SDS011;4900;49.306;8.500;2023-07-09T03:17:58;9.98;;;5.97;;
9722;SDS011;4900;49.306;8.500;2023-07-09T03:20:23;7.65;;;5.35;;
9722;SDS011;4900;49.306;8.500;2023-07-09T03:22:50;6.53;;;5.13;;
9722;SDS011;4900;49.306;8.500;2023-07-09T03:25:15;7.22;;;5.25;;
9722;SDS011;4900;49.306;8.500;2023-07-09T03:27:42;7.18;;;5.72;;
9722;SDS011;4900;49.306;8.500;2023-07-09T03:30:07;6.03;;;5.03;;
9722;SDS011;4900;49.306;8.500;2023-07-09T03:32:33;8.52;;;5.30;;
9722;SDS011;4900;49.306;8.500;2023-07-09T03:34:59;7.53;;;5.15;;
9722;SDS011;4900;49.306;8.500;2023-07-09T03:37:24;6.80;;;5.13;;
9722;SDS011;4900;49.306;8.500;2023-07-09T03:39:50;8.25;;;5.80;;
9722;SDS011;4900;49.306;8.500;2023-07-09T03:42:15;7.38;;;5.13;;
9722;SDS011;4900;49.306;8.500;2023-07-09T03:44:41;7.55;;;5.25;;
9722;SDS011;4900;49.306;8.500;2023-07-09T03:47:07;6.80;;;5.15;;
9722;SDS011;4900;49.306;8.500;2023-07-09T03:49:32;6.88;;;5.53;;
9722;SDS011;4900;49.306;8.500;2023-07-09T03:51:58;7.32;;;5.18;;
9722;SDS011;4900;49.306;8.500;2023-07-09T03:54:24;8.80;;;5.47;;
9722;SDS011;4900;49.306;8.500;2023-07-09T03:56:49;7.25;;;5.43;;
9722;SDS011;4900;49.306;8.500;2023-07-09T03:59:15;7.95;;;5.32;;
9722;SDS011;4900;49.306;8.500;2023-07-09T04:01:40;6.68;;;5.20;;
9722;SDS011;4900;49.306;8.500;2023-07-09T04:04:11;7.60;;;5.35;;
9722;SDS011;4900;49.306;8.500;2023-07-09T04:06:37;8.13;;;4.88;;
9722;SDS011;4900;49.306;8.500;2023-07-09T04:09:02;9.20;;;4.93;;
9722;SDS011;4900;49.306;8.500;2023-07-09T04:11:28;5.32;;;4.57;;
9722;SDS011;4900;49.306;8.500;2023-07-09T04:13:53;6.28;;;4.72;;
9722;SDS011;4900;49.306;8.500;2023-07-09T04:16:19;6.97;;;4.47;;
9722;SDS011;4900;49.306;8.500;2023-07-09T04:18:44;6.40;;;4.63;;
9722;SDS011;4900;49.306;8.500;2023-07-09T04:21:10;6.85;;;4.70;;
9722;SDS011;4900;49.306;8.500;2023-07-09T04:23:35;6.18;;;4.57;;
9722;SDS011;4900;49.306;8.500;2023-07-09T04:26:00;5.60;;;4.38;;
9722;SDS011;4900;49.306;8.500;2023-07-09T04:28:27;6.38;;;4.47;;
9722;SDS011;4900;49.306;8.500;2023-07-09T04:30:55;5.75;;;4.05;;
9722;SDS011;4900;49.306;8.500;2023-07-09T04:33:20;7.20;;;4.15;;
9722;SDS011;4900;49.306;8.500;2023-07-09T04:35:45;4.80;;;4.10;;
9722;SDS011;4900;49.306;8.500;2023-07-09T04:38:12;6.15;;;4.30;;
9722;SDS011;4900;49.306;8.500;2023-07-09T04:40:38;6.47;;;4.30;;
9722;SDS011;4900;49.306;8.500;2023-07-09T04:43:03;5.95;;;4.43;;
9722;SDS011;4900;49.306;8.500;2023-07-09T04:45:29;5.93;;;4.07;;
9722;SDS011;4900;49.306;8.500;2023-07-09T04:47:54;4.97;;;3.97;;
9722;SDS011;4900;49.306;8.500;2023-07-09T04:50:19;5.75;;;4.13;;
9722;SDS011;4900;49.306;8.500;2023-07-09T04:52:45;4.78;;;3.72;;
9722;SDS011;4900;49.306;8.500;2023-07-09T04:55:10;5.78;;;4.15;;
9722;SDS011;4900;49.306;8.500;2023-07-09T04:57:36;5.13;;;3.92;;
9722;SDS011;4900;49.306;8.500;2023-07-09T05:00:02;6.07;;;4.10;;
9722;SDS011;4900;49.306;8.500;2023-07-09T05:02:30;7.25;;;3.55;;
9722;SDS011;4900;49.306;8.500;2023-07-09T05:04:56;5.03;;;3.70;;
9722;SDS011;4900;49.306;8.500;2023-07-09T05:07:21;4.80;;;3.92;;
9722;SDS011;4900;49.306;8.500;2023-07-09T05:09:47;4.88;;;4.10;;
9722;SDS011;4900;49.306;8.500;2023-07-09T05:12:13;4.45;;;3.88;;
9722;SDS011;4900;49.306;8.500;2023-07-09T05:14:38;6.22;;;3.60;;
9722;SDS011;4900;49.306;8.500;2023-07-09T05:17:04;5.68;;;4.15;;
9722;SDS011;4900;49.306;8.500;2023-07-09T05:19:30;4.47;;;3.80;;
9722;SDS011;4900;49.306;8.500;2023-07-09T05:21:56;4.15;;;3.63;;
9722;SDS011;4900;49.306;8.500;2023-07-09T05:24:21;7.18;;;4.00;;
9722;SDS011;4900;49.306;8.500;2023-07-09T05:26:47;7.45;;;4.13;;
9722;SDS011;4900;49.306;8.500;2023-07-09T05:29:12;4.22;;;3.72;;
9722;SDS011;4900;49.306;8.500;2023-07-09T05:31:38;4.35;;;3.90;;
9722;SDS011;4900;49.306;8.500;2023-07-09T05:34:03;4.50;;;3.85;;
9722;SDS011;4900;49.306;8.500;2023-07-09T05:36:29;5.28;;;4.25;;
9722;SDS011;4900;49.306;8.500;2023-07-09T05:38:55;4.95;;;3.97;;
9722;SDS011;4900;49.306;8.500;2023-07-09T05:41:21;5.55;;;4.00;;
9722;SDS011;4900;49.306;8.500;2023-07-09T05:43:49;5.53;;;4.00;;
9722;SDS011;4900;49.306;8.500;2023-07-09T05:46:15;4.50;;;4.03;;
9722;SDS011;4900;49.306;8.500;2023-07-09T05:48:40;4.97;;;4.07;;
9722;SDS011;4900;49.306;8.500;2023-07-09T05:51:06;6.03;;;4.18;;
9722;SDS011;4900;49.306;8.500;2023-07-09T05:53:31;4.70;;;3.92;;
9722;SDS011;4900;49.306;8.500;2023-07-09T05:55:58;5.72;;;4.22;;
9722;SDS011;4900;49.306;8.500;2023-07-09T05:58:24;5.63;;;4.10;;
9722;SDS011;4900;49.306;8.500;2023-07-09T06:00:50;5.40;;;3.70;;
9722;SDS011;4900;49.306;8.500;2023-07-09T06:03:21;6.07;;;3.95;;
9722;SDS011;4900;49.306;8.500;2023-07-09T06:05:48;5.55;;;4.15;;
9722;SDS011;4900;49.306;8.500;2023-07-09T06:08:17;5.35;;;3.67;;
9722;SDS011;4900;49.306;8.500;2023-07-09T06:10:54;4.88;;;3.75;;
9722;SDS011;4900;49.306;8.500;2023-07-09T06:13:21;5.47;;;3.60;;
9722;SDS011;4900;49.306;8.500;2023-07-09T06:15:48;5.53;;;3.85;;
9722;SDS011;4900;49.306;8.500;2023-07-09T06:18:13;4.32;;;3.90;;
9722;SDS011;4900;49.306;8.500;2023-07-09T06:20:39;4.95;;;3.95;;
9722;SDS011;4900;49.306;8.500;2023-07-09T06:23:04;5.45;;;4.30;;
9722;SDS011;4900;49.306;8.500;2023-07-09T06:25:30;4.97;;;4.05;;
9722;SDS011;4900;49.306;8.500;2023-07-09T06:27:56;4.80;;;3.85;;
9722;SDS011;4900;49.306;8.500;2023-07-09T06:30:22;7.60;;;4.00;;
9722;SDS011;4900;49.306;8.500;2023-07-09T06:32:48;4.22;;;3.83;;
9722;SDS011;4900;49.306;8.500;2023-07-09T06:35:13;4.57;;;3.88;;
9722;SDS011;4900;49.306;8.500;2023-07-09T06:37:39;4.47;;;3.97;;
9722;SDS011;4900;49.306;8.500;2023-07-09T06:40:04;5.07;;;3.90;;
9722;SDS011;4900;49.306;8.500;2023-07-09T06:42:33;5.75;;;4.00;;
9722;SDS011;4900;49.306;8.500;2023-07-09T06:44:58;4.57;;;4.10;;
9722;SDS011;4900;49.306;8.500;2023-07-09T06:47:24;5.97;;;4.28;;
9722;SDS011;4900;49.306;8.500;2023-07-09T06:49:49;6.55;;;3.95;;
9722;SDS011;4900;49.306;8.500;2023-07-09T06:52:14;5.28;;;3.90;;
9722;SDS011;4900;49.306;8.500;2023-07-09T06:54:40;5.18;;;4.13;;
9722;SDS011;4900;49.306;8.500;2023-07-09T06:57:05;5.68;;;3.78;;
9722;SDS011;4900;49.306;8.500;2023-07-09T06:59:31;4.22;;;3.83;;
9722;SDS011;4900;49.306;8.500;2023-07-09T07:01:56;5.25;;;4.00;;
9722;SDS011;4900;49.306;8.500;2023-07-09T07:04:22;8.43;;;4.10;;
9722;SDS011;4900;49.306;8.500;2023-07-09T07:06:47;5.60;;;4.35;;
9722;SDS011;4900;49.306;8.500;2023-07-09T07:09:12;5.60;;;4.53;;
9722;SDS011;4900;49.306;8.500;2023-07-09T07:11:38;4.90;;;4.30;;
9722;SDS011;4900;49.306;8.500;2023-07-09T07:14:03;4.35;;;3.95;;
9722;SDS011;4900;49.306;8.500;2023-07-09T07:16:29;6.10;;;4.38;;
9722;SDS011;4900;49.306;8.500;2023-07-09T07:18:54;4.57;;;3.90;;
9722;SDS011;4900;49.306;8.500;2023-07-09T07:21:20;5.00;;;4.22;;
9722;SDS011;4900;49.306;8.500;2023-07-09T07:23:45;5.75;;;4.13;;
9722;SDS011;4900;49.306;8.500;2023-07-09T07:26:10;5.03;;;4.55;;
9722;SDS011;4900;49.306;8.500;2023-07-09T07:28:36;4.85;;;4.35;;
9722;SDS011;4900;49.306;8.500;2023-07-09T07:31:03;5.55;;;4.43;;
9722;SDS011;4900;49.306;8.500;2023-07-09T07:33:30;5.55;;;4.00;;
9722;SDS011;4900;49.306;8.500;2023-07-09T07:35:56;6.22;;;4.10;;
9722;SDS011;4900;49.306;8.500;2023-07-09T07:38:21;4.82;;;4.32;;
9722;SDS011;4900;49.306;8.500;2023-07-09T07:40:47;5.40;;;4.57;;
9722;SDS011;4900;49.306;8.500;2023-07-09T07:43:12;5.30;;;4.80;;
9722;SDS011;4900;49.306;8.500;2023-07-09T07:45:41;4.88;;;4.38;;
9722;SDS011;4900;49.306;8.500;2023-07-09T07:48:08;4.80;;;4.20;;
9722;SDS011;4900;49.306;8.500;2023-07-09T07:50:34;5.55;;;4.15;;
9722;SDS011;4900;49.306;8.500;2023-07-09T07:52:59;5.03;;;4.53;;
9722;SDS011;4900;49.306;8.500;2023-07-09T07:55:25;4.47;;;4.07;;
9722;SDS011;4900;49.306;8.500;2023-07-09T07:57:50;5.20;;;4.30;;
9722;SDS011;4900;49.306;8.500;2023-07-09T08:00:16;5.68;;;4.05;;
9722;SDS011;4900;49.306;8.500;2023-07-09T08:02:42;4.50;;;4.10;;
9722;SDS011;4900;49.306;8.500;2023-07-09T08:05:08;5.53;;;4.35;;
9722;SDS011;4900;49.306;8.500;2023-07-09T08:07:34;5.22;;;4.30;;
9722;SDS011;4900;49.306;8.500;2023-07-09T08:10:00;4.57;;;4.18;;
9722;SDS011;4900;49.306;8.500;2023-07-09T08:12:25;5.18;;;4.00;;
9722;SDS011;4900;49.306;8.500;2023-07-09T08:14:51;5.13;;;4.20;;
9722;SDS011;4900;49.306;8.500;2023-07-09T08:17:16;4.93;;;3.78;;
9722;SDS011;4900;49.306;8.500;2023-07-09T08:22:15;4.72;;;4.32;;
9722;SDS011;4900;49.306;8.500;2023-07-09T08:24:41;4.38;;;3.90;;
9722;SDS011;4900;49.306;8.500;2023-07-09T08:27:07;6.40;;;4.07;;
9722;SDS011;4900;49.306;8.500;2023-07-09T08:29:33;5.57;;;4.00;;
9722;SDS011;4900;49.306;8.500;2023-07-09T08:31:59;9.98;;;4.28;;
9722;SDS011;4900;49.306;8.500;2023-07-09T08:34:25;4.60;;;3.92;;
9722;SDS011;4900;49.306;8.500;2023-07-09T08:36:50;4.40;;;4.00;;
9722;SDS011;4900;49.306;8.500;2023-07-09T08:39:15;4.22;;;3.83;;
9722;SDS011;4900;49.306;8.500;2023-07-09T08:42:25;4.72;;;4.07;;
9722;SDS011;4900;49.306;8.500;2023-07-09T08:47:37;4.95;;;3.70;;
9722;SDS011;4900;49.306;8.500;2023-07-09T08:50:43;5.72;;;3.83;;
9722;SDS011;4900;49.306;8.500;2023-07-09T08:53:17;4.90;;;4.38;;
9722;SDS011;4900;49.306;8.500;2023-07-09T08:55:46;4.65;;;4.25;;
9722;SDS011;4900;49.306;8.500;2023-07-09T08:58:25;5.00;;;3.67;;
9722;SDS011;4900;49.306;8.500;2023-07-09T09:00:54;4.53;;;4.10;;
9722;SDS011;4900;49.306;8.500;2023-07-09T09:03:39;5.35;;;4.20;;
9722;SDS011;4900;49.306;8.500;2023-07-09T09:06:12;4.93;;;4.30;;
9722;SDS011;4900;49.306;8.500;2023-07-09T09:08:52;6.20;;;4.43;;
9722;SDS011;4900;49.306;8.500;2023-07-09T09:11:31;4.95;;;4.32;;
9722;SDS011;4900;49.306;8.500;2023-07-09T09:16:54;6.13;;;4.50;;
9722;SDS011;4900;49.306;8.500;2023-07-09T09:22:02;4.47;;;4.00;;
9722;SDS011;4900;49.306;8.500;2023-07-09T09:24:37;4.28;;;3.88;;
9722;SDS011;4900;49.306;8.500;2023-07-09T09:27:17;4.60;;;4.05;;
9722;SDS011;4900;49.306;8.500;2023-07-09T09:29:43;4.85;;;4.10;;
9722;SDS011;4900;49.306;8.500;2023-07-09T09:32:20;5.05;;;4.55;;
9722;SDS011;4900;49.306;8.500;2023-07-09T09:34:50;5.55;;;4.20;;
9722;SDS011;4900;49.306;8.500;2023-07-09T09:37:26;6.05;;;4.45;;
9722;SDS011;4900;49.306;8.500;2023-07-09T09:39:54;5.80;;;4.20;;
9722;SDS011;4900;49.306;8.500;2023-07-09T09:42:19;4.50;;;4.10;;
9722;SDS011;4900;49.306;8.500;2023-07-09T09:44:45;4.97;;;4.50;;
9722;SDS011;4900;49.306;8.500;2023-07-09T09:47:11;5.75;;;4.60;;
9722;SDS011;4900;49.306;8.500;2023-07-09T09:49:38;6.32;;;4.18;;
9722;SDS011;4900;49.306;8.500;2023-07-09T09:52:09;4.00;;;3.70;;
9722;SDS011;4900;49.306;8.500;2023-07-09T09:54:40;5.68;;;4.25;;
9722;SDS011;4900;49.306;8.500;2023-07-09T09:57:15;5.03;;;4.25;;
9722;SDS011;4900;49.306;8.500;2023-07-09T09:59:47;4.85;;;4.45;;
9722;SDS011;4900;49.306;8.500;2023-07-09T10:02:18;4.43;;;4.03;;
9722;SDS011;4900;49.306;8.500;2023-07-09T10:04:45;4.68;;;4.25;;
9722;SDS011;4900;49.306;8.500;2023-07-09T10:07:14;4.53;;;4.13;;
9722;SDS011;4900;49.306;8.500;2023-07-09T10:09:55;5.07;;;4.00;;
9722;SDS011;4900;49.306;8.500;2023-07-09T10:15:17;4.68;;;4.15;;
9722;SDS011;4900;49.306;8.500;2023-07-09T10:17:53;5.85;;;4.10;;
9722;SDS011;4900;49.306;8.500;2023-07-09T10:20:24;4.95;;;4.07;;
9722;SDS011;4900;49.306;8.500;2023-07-09T10:23:20;4.78;;;4.15;;
9722;SDS011;4900;49.306;8.500;2023-07-09T10:42:03;3.50;;;3.20;;
9722;SDS011;4900;49.306;8.500;2023-07-09T10:44:36;4.30;;;3.90;;
9722;SDS011;4900;49.306;8.500;2023-07-09T10:47:08;4.20;;;3.80;;
9722;SDS011;4900;49.306;8.500;2023-07-09T10:49:39;5.63;;;3.63;;
9722;SDS011;4900;49.306;8.500;2023-07-09T10:52:29;4.32;;;3.92;;
9722;SDS011;4900;49.306;8.500;2023-07-09T10:55:05;4.68;;;3.80;;
9722;SDS011;4900;49.306;8.500;2023-07-09T11:00:34;4.93;;;3.80;;
9722;SDS011;4900;49.306;8.500;2023-07-09T11:06:00;4.30;;;3.90;;
9722;SDS011;4900;49.306;8.500;2023-07-09T11:08:36;3.88;;;3.47;;
9722;SDS011;4900;49.306;8.500;2023-07-09T11:11:05;4.22;;;3.83;;
9722;SDS011;4900;49.306;8.500;2023-07-09T11:13:39;3.63;;;3.33;;
9722;SDS011;4900;49.306;8.500;2023-07-09T11:16:11;3.90;;;3.50;;
9722;SDS011;4900;49.306;8.500;2023-07-09T11:18:39;3.58;;;3.05;;
9722;SDS011;4900;49.306;8.500;2023-07-09T11:21:23;4.43;;;3.60;;
9722;SDS011;4900;49.306;8.500;2023-07-09T11:23:49;3.28;;;3.00;;
9722;SDS011;4900;49.306;8.500;2023-07-09T11:26:23;5.30;;;3.10;;
9722;SDS011;4900;49.306;8.500;2023-07-09T11:28:51;3.15;;;2.85;;
9722;SDS011;4900;49.306;8.500;2023-07-09T11:31:31;4.22;;;3.03;;
9722;SDS011;4900;49.306;8.500;2023-07-09T11:34:21;3.65;;;3.08;;
9722;SDS011;4900;49.306;8.500;2023-07-09T11:41:55;3.28;;;2.97;;
9722;SDS011;4900;49.306;8.500;2023-07-09T11:44:24;4.78;;;3.05;;
9722;SDS011;4900;49.306;8.500;2023-07-09T11:49:34;3.75;;;3.00;;
9722;SDS011;4900;49.306;8.500;2023-07-09T11:52:13;4.10;;;3.08;;
9722;SDS011;4900;49.306;8.500;2023-07-09T11:54:45;4.88;;;2.90;;
9722;SDS011;4900;49.306;8.500;2023-07-09T11:57:11;4.50;;;2.78;;
9722;SDS011;4900;49.306;8.500;2023-07-09T11:59:40;3.67;;;3.00;;
9722;SDS011;4900;49.306;8.500;2023-07-09T12:02:09;3.35;;;3.03;;
9722;SDS011;4900;49.306;8.500;2023-07-09T12:04:43;3.58;;;3.03;;
9722;SDS011;4900;49.306;8.500;2023-07-09T12:07:09;3.58;;;2.92;;
9722;SDS011;4900;49.306;8.500;2023-07-09T12:09:39;3.20;;;2.90;;
9722;SDS011;4900;49.306;8.500;2023-07-09T12:12:16;3.28;;;2.97;;
9722;SDS011;4900;49.306;8.500;2023-07-09T12:14:52;4.25;;;2.97;;
9722;SDS011;4900;49.306;8.500;2023-07-09T12:17:22;3.35;;;2.90;;
9722;SDS011;4900;49.306;8.500;2023-07-09T12:19:51;3.40;;;2.70;;
9722;SDS011;4900;49.306;8.500;2023-07-09T12:22:21;4.45;;;2.97;;
9722;SDS011;4900;49.306;8.500;2023-07-09T12:24:48;3.63;;;3.08;;
9722;SDS011;4900;49.306;8.500;2023-07-09T12:27:22;3.20;;;2.90;;
9722;SDS011;4900;49.306;8.500;2023-07-09T12:29:53;3.38;;;3.08;;
9722;SDS011;4900;49.306;8.500;2023-07-09T12:32:20;3.28;;;2.97;;
9722;SDS011;4900;49.306;8.500;2023-07-09T12:34:49;3.95;;;3.00;;
9722;SDS011;4900;49.306;8.500;2023-07-09T12:37:16;3.42;;;3.10;;
9722;SDS011;4900;49.306;8.500;2023-07-09T12:39:42;3.53;;;3.20;;
9722;SDS011;4900;49.306;8.500;2023-07-09T12:42:29;3.72;;;3.15;;
9722;SDS011;4900;49.306;8.500;2023-07-09T12:44:56;3.72;;;3.25;;
9722;SDS011;4900;49.306;8.500;2023-07-09T12:47:23;3.78;;;2.95;;
9722;SDS011;4900;49.306;8.500;2023-07-09T12:49:50;3.38;;;3.05;;
9722;SDS011;4900;49.306;8.500;2023-07-09T12:52:20;3.58;;;3.05;;
9722;SDS011;4900;49.306;8.500;2023-07-09T12:55:00;3.70;;;3.40;;
9722;SDS011;4900;49.306;8.500;2023-07-09T12:57:27;3.88;;;3.20;;
9722;SDS011;4900;49.306;8.500;2023-07-09T12:59:55;4.50;;;3.08;;
9722;SDS011;4900;49.306;8.500;2023-07-09T13:02:22;3.97;;;3.17;;
9722;SDS011;4900;49.306;8.500;2023-07-09T13:04:50;3.42;;;3.10;;
9722;SDS011;4900;49.306;8.500;2023-07-09T13:10:04;4.63;;;3.40;;
9722;SDS011;4900;49.306;8.500;2023-07-09T13:12:32;3.75;;;3.00;;
9722;SDS011;4900;49.306;8.500;2023-07-09T13:14:58;3.45;;;3.15;;
9722;SDS011;4900;49.306;8.500;2023-07-09T13:17:27;3.92;;;3.22;;
9722;SDS011;4900;49.306;8.500;2023-07-09T13:19:54;4.82;;;3.05;;
9722;SDS011;4900;49.306;8.500;2023-07-09T13:22:22;3.90;;;3.03;;
9722;SDS011;4900;49.306;8.500;2023-07-09T13:24:47;4.43;;;3.17;;
9722;SDS011;4900;49.306;8.500;2023-07-09T13:27:13;4.53;;;3.10;;
9722;SDS011;4900;49.306;8.500;2023-07-09T13:29:40;4.20;;;3.10;;
9722;SDS011;4900;49.306;8.500;2023-07-09T13:32:10;4.45;;;3.08;;
9722;SDS011;4900;49.306;8.500;2023-07-09T13:34:37;3.97;;;3.13;;
9722;SDS011;4900;49.306;8.500;2023-07-09T13:37:04;3.92;;;3.00;;
9722;SDS011;4900;49.306;8.500;2023-07-09T13:39:30;3.92;;;3.10;;
9722;SDS011;4900;49.306;8.500;2023-07-09T13:41:56;3.67;;;3.00;;
9722;SDS011;4900;49.306;8.500;2023-07-09T13:44:29;4.18;;;3.10;;
9722;SDS011;4900;49.306;8.500;2023-07-09T13:46:58;3.10;;;2.80;;
9722;SDS011;4900;49.306;8.500;2023-07-09T13:49:24;4.80;;;3.15;;
9722;SDS011;4900;49.306;8.500;2023-07-09T13:51:53;3.53;;;2.95;;
9722;SDS011;4900;49.306;8.500;2023-07-09T13:54:22;5.55;;;3.10;;
9722;SDS011;4900;49.306;8.500;2023-07-09T13:56:50;3.60;;;3.10;;
9722;SDS011;4900;49.306;8.500;2023-07-09T13:59:17;3.53;;;3.03;;
9722;SDS011;4900;49.306;8.500;2023-07-09T14:01:48;4.05;;;2.97;;
9722;SDS011;4900;49.306;8.500;2023-07-09T14:04:15;4.57;;;2.95;;
9722;SDS011;4900;49.306;8.500;2023-07-09T14:06:42;4.40;;;2.78;;
9722;SDS011;4900;49.306;8.500;2023-07-09T14:09:09;3.50;;;3.10;;
9722;SDS011;4900;49.306;8.500;2023-07-09T14:11:37;3.63;;;3.15;;
9722;SDS011;4900;49.306;8.500;2023-07-09T14:16:47;3.83;;;3.10;;
9722;SDS011;4900;49.306;8.500;2023-07-09T14:19:14;4.43;;;3.22;;
9722;SDS011;4900;49.306;8.500;2023-07-09T14:21:42;3.72;;;3.20;;
9722;SDS011;4900;49.306;8.500;2023-07-09T14:24:28;3.67;;;2.97;;
9722;SDS011;4900;49.306;8.500;2023-07-09T14:26:55;4.70;;;2.95;;
9722;SDS011;4900;49.306;8.500;2023-07-09T14:29:22;3.03;;;2.72;;
9722;SDS011;4900;49.306;8.500;2023-07-09T14:31:48;4.35;;;3.20;;
9722;SDS011;4900;49.306;8.500;2023-07-09T14:34:19;6.90;;;3.72;;
9722;SDS011;4900;49.306;8.500;2023-07-09T14:36:50;6.13;;;4.82;;
9722;SDS011;4900;49.306;8.500;2023-07-09T14:39:17;4.53;;;3.50;;
9722;SDS011;4900;49.306;8.500;2023-07-09T14:41:43;4.07;;;3.40;;
9722;SDS011;4900;49.306;8.500;2023-07-09T14:44:18;3.55;;;3.20;;
9722;SDS011;4900;49.306;8.500;2023-07-09T14:46:48;4.28;;;3.35;;
9722;SDS011;4900;49.306;8.500;2023-07-09T14:49:15;3.33;;;3.00;;
9722;SDS011;4900;49.306;8.500;2023-07-09T14:51:42;3.88;;;3.17;;
9722;SDS011;4900;49.306;8.500;2023-07-09T14:54:17;5.40;;;3.00;;
9722;SDS011;4900;49.306;8.500;2023-07-09T14:56:43;5.25;;;3.10;;
9722;SDS011;4900;49.306;8.500;2023-07-09T14:59:08;5.35;;;3.40;;
9722;SDS011;4900;49.306;8.500;2023-07-09T15:01:33;6.63;;;3.30;;
9722;SDS011;4900;49.306;8.500;2023-07-09T15:03:59;4.28;;;3.30;;
9722;SDS011;4900;49.306;8.500;2023-07-09T15:06:51;3.42;;;3.13;;
9722;SDS011;4900;49.306;8.500;2023-07-09T15:09:22;5.35;;;3.42;;
9722;SDS011;4900;49.306;8.500;2023-07-09T15:11:50;4.90;;;3.22;;
9722;SDS011;4900;49.306;8.500;2023-07-09T15:14:17;5.85;;;3.22;;
9722;SDS011;4900;49.306;8.500;2023-07-09T15:16:43;6.85;;;3.33;;
9722;SDS011;4900;49.306;8.500;2023-07-09T15:19:15;3.67;;;3.38;;
9722;SDS011;4900;49.306;8.500;2023-07-09T15:21:41;4.18;;;3.30;;
9722;SDS011;4900;49.306;8.500;2023-07-09T15:24:10;3.67;;;3.03;;
9722;SDS011;4900;49.306;8.500;2023-07-09T15:26:39;5.10;;;3.00;;
9722;SDS011;4900;49.306;8.500;2023-07-09T15:29:04;4.28;;;3.38;;
9722;SDS011;4900;49.306;8.500;2023-07-09T15:31:30;4.97;;;3.70;;
9722;SDS011;4900;49.306;8.500;2023-07-09T15:33:55;5.57;;;3.80;;
9722;SDS011;4900;49.306;8.500;2023-07-09T15:36:21;5.60;;;3.40;;
9722;SDS011;4900;49.306;8.500;2023-07-09T15:38:46;4.22;;;3.75;;
9722;SDS011;4900;49.306;8.500;2023-07-09T15:41:12;4.00;;;3.55;;
9722;SDS011;4900;49.306;8.500;2023-07-09T15:43:41;3.95;;;3.38;;
9722;SDS011;4900;49.306;8.500;2023-07-09T15:46:08;5.32;;;3.53;;
9722;SDS011;4900;49.306;8.500;2023-07-09T15:48:44;4.50;;;3.35;;
9722;SDS011;4900;49.306;8.500;2023-07-09T15:51:10;4.10;;;3.40;;
9722;SDS011;4900;49.306;8.500;2023-07-09T15:53:37;3.92;;;3.20;;
9722;SDS011;4900;49.306;8.500;2023-07-09T15:56:06;4.07;;;3.15;;
9722;SDS011;4900;49.306;8.500;2023-07-09T15:58:41;3.95;;;3.05;;
9722;SDS011;4900;49.306;8.500;2023-07-09T16:01:12;4.68;;;3.40;;
9722;SDS011;4900;49.306;8.500;2023-07-09T16:03:42;3.55;;;3.20;;
9722;SDS011;4900;49.306;8.500;2023-07-09T16:06:11;3.42;;;2.90;;
9722;SDS011;4900;49.306;8.500;2023-07-09T16:08:36;4.75;;;3.40;;
9722;SDS011;4900;49.306;8.500;2023-07-09T16:11:04;4.63;;;3.20;;
9722;SDS011;4900;49.306;8.500;2023-07-09T16:13:41;8.55;;;3.38;;
9722;SDS011;4900;49.306;8.500;2023-07-09T16:16:12;4.65;;;3.13;;